Time,TemperatureF,DewpointF,PressureIn,WindDirection,WindDirectionDegrees,WindSpeedMPH,WindSpeedGustMPH,Humidity,HourlyPrecipIn,Conditions,Clouds,dailyrainin,SoftwareType,DateUTC
2013-09-29 00:02:00,54.0,52.5,29.94,West,277,0.0,5.0,95,0.00,,,0.31,meteohub,2013-09-29 05:02:00,
2013-09-29 00:07:00,53.8,52.3,29.94,West,265,2.0,4.0,95,0.00,,,0.00,meteohub,2013-09-29 05:07:00,
2013-09-29 00:12:00,53.4,52.0,29.94,West,265,0.0,4.0,95,0.00,,,0.00,meteohub,2013-09-29 05:12:00,
2013-09-29 00:17:00,53.2,51.8,29.93,West,265,0.0,4.0,95,0.00,,,0.00,meteohub,2013-09-29 05:17:00,
2013-09-29 00:22:00,53.1,51.6,29.94,West,265,0.0,3.0,95,0.01,,,0.01,meteohub,2013-09-29 05:22:00,
2013-09-29 00:27:00,52.9,51.4,29.94,West,265,0.0,3.0,95,0.01,,,0.01,meteohub,2013-09-29 05:27:00,
2013-09-29 00:32:00,52.5,51.1,29.94,West,265,0.0,2.0,95,0.01,,,0.01,meteohub,2013-09-29 05:32:00,
2013-09-29 00:37:00,52.5,51.1,29.94,West,265,0.0,2.0,95,0.01,,,0.01,meteohub,2013-09-29 05:37:00,
2013-09-29 00:42:00,52.3,50.9,29.94,West,265,0.0,2.0,95,0.01,,,0.01,meteohub,2013-09-29 05:42:00,
2013-09-29 00:47:00,52.2,50.7,29.94,West,265,0.0,2.0,95,0.01,,,0.01,meteohub,2013-09-29 05:47:00,
2013-09-29 00:52:00,52.0,50.5,29.94,West,265,0.0,1.0,95,0.01,,,0.01,meteohub,2013-09-29 05:52:00,
2013-09-29 00:57:00,51.6,50.2,29.94,West,265,0.0,1.0,95,0.01,,,0.01,meteohub,2013-09-29 05:57:00,
2013-09-29 01:02:00,51.3,49.8,29.94,West,265,0.0,2.0,95,0.01,,,0.01,meteohub,2013-09-29 06:02:00,
2013-09-29 01:07:00,51.1,49.6,29.94,West,265,0.0,2.0,95,0.01,,,0.01,meteohub,2013-09-29 06:07:00,
2013-09-29 01:12:00,50.9,49.5,29.94,West,265,0.0,1.0,95,0.01,,,0.01,meteohub,2013-09-29 06:12:00,
2013-09-29 01:17:00,50.7,49.3,29.94,West,265,0.0,1.0,95,0.01,,,0.01,meteohub,2013-09-29 06:17:00,
2013-09-29 01:22:00,50.5,49.1,29.95,West,265,0.0,1.0,95,0.00,,,0.01,meteohub,2013-09-29 06:22:00,
2013-09-29 01:27:00,50.5,49.1,29.95,West,265,0.0,1.0,95,0.00,,,0.01,meteohub,2013-09-29 06:27:00,
2013-09-29 01:32:00,50.4,48.9,29.95,West,265,0.0,1.0,95,0.00,,,0.01,meteohub,2013-09-29 06:32:00,
2013-09-29 01:37:00,50.0,48.6,29.95,West,265,0.0,1.0,95,0.00,,,0.01,meteohub,2013-09-29 06:37:00,
2013-09-29 01:42:00,49.8,48.4,29.96,West,265,0.0,1.0,95,0.00,,,0.01,meteohub,2013-09-29 06:42:00,
2013-09-29 01:47:00,49.6,48.2,29.96,West,265,0.0,0.0,95,0.00,,,0.01,meteohub,2013-09-29 06:47:00,
2013-09-29 01:52:00,49.3,47.8,29.96,West,265,0.0,0.0,95,0.00,,,0.01,meteohub,2013-09-29 06:52:00,
2013-09-29 01:57:00,49.1,47.7,29.96,West,265,0.0,0.0,95,0.00,,,0.01,meteohub,2013-09-29 06:57:00,
2013-09-29 02:02:00,48.7,47.3,29.96,West,265,0.0,0.0,95,0.00,,,0.01,meteohub,2013-09-29 07:02:00,
2013-09-29 02:07:00,48.7,47.3,29.96,West,265,0.0,0.0,95,0.00,,,0.01,meteohub,2013-09-29 07:07:00,
2013-09-29 02:12:00,48.6,47.1,29.96,West,265,0.0,1.0,95,0.00,,,0.01,meteohub,2013-09-29 07:12:00,
2013-09-29 02:17:00,48.6,47.1,29.96,West,265,0.0,1.0,95,0.00,,,0.01,meteohub,2013-09-29 07:17:00,
2013-09-29 02:22:00,48.6,47.1,29.96,West,265,0.0,1.0,95,0.00,,,0.01,meteohub,2013-09-29 07:22:00,
2013-09-29 02:27:00,48.4,46.9,29.96,West,265,0.0,1.0,95,0.00,,,0.01,meteohub,2013-09-29 07:27:00,
2013-09-29 02:32:00,48.4,46.9,29.96,West,265,0.0,1.0,95,0.00,,,0.01,meteohub,2013-09-29 07:32:00,
2013-09-29 02:37:00,48.4,46.9,29.96,West,265,0.0,1.0,95,0.00,,,0.01,meteohub,2013-09-29 07:37:00,
2013-09-29 02:42:00,48.4,46.9,29.96,West,265,0.0,1.0,95,0.00,,,0.01,meteohub,2013-09-29 07:42:00,
2013-09-29 02:47:00,48.4,46.9,29.96,West,265,0.0,1.0,95,0.00,,,0.01,meteohub,2013-09-29 07:47:00,
2013-09-29 02:52:00,48.2,46.8,29.96,West,265,0.0,1.0,95,0.00,,,0.01,meteohub,2013-09-29 07:52:00,
2013-09-29 02:57:00,48.0,46.6,29.96,West,265,0.0,0.0,95,0.00,,,0.01,meteohub,2013-09-29 07:57:00,
2013-09-29 03:02:00,47.8,46.4,29.97,West,265,0.0,1.0,95,0.00,,,0.01,meteohub,2013-09-29 08:02:00,
2013-09-29 03:07:00,47.8,46.8,29.96,West,265,0.0,1.0,96,0.00,,,0.01,meteohub,2013-09-29 08:07:00,
2013-09-29 03:12:00,47.8,46.8,29.97,West,265,0.0,1.0,96,0.00,,,0.01,meteohub,2013-09-29 08:12:00,
2013-09-29 03:17:00,47.7,46.2,29.97,West,265,0.0,1.0,95,0.00,,,0.01,meteohub,2013-09-29 08:17:00,
2013-09-29 03:22:00,47.7,46.2,29.97,West,265,0.0,0.0,95,0.00,,,0.01,meteohub,2013-09-29 08:22:00,
2013-09-29 03:27:00,47.5,46.0,29.97,West,265,0.0,0.0,95,0.00,,,0.01,meteohub,2013-09-29 08:27:00,
2013-09-29 03:32:00,47.5,46.4,29.97,West,265,0.0,0.0,96,0.00,,,0.01,meteohub,2013-09-29 08:32:00,
2013-09-29 03:37:00,47.3,46.2,29.97,West,265,0.0,0.0,96,0.00,,,0.01,meteohub,2013-09-29 08:37:00,
2013-09-29 03:42:00,47.1,46.0,29.97,West,265,0.0,0.0,96,0.00,,,0.01,meteohub,2013-09-29 08:42:00,
2013-09-29 03:47:00,47.1,45.7,29.97,West,265,0.0,0.0,95,0.00,,,0.01,meteohub,2013-09-29 08:47:00,
2013-09-29 03:52:00,46.9,45.5,29.97,West,265,0.0,1.0,95,0.00,,,0.01,meteohub,2013-09-29 08:52:00,
2013-09-29 03:57:00,46.8,45.7,29.97,West,265,0.0,1.0,96,0.00,,,0.01,meteohub,2013-09-29 08:57:00,
2013-09-29 04:02:00,46.8,45.7,29.97,West,265,0.0,1.0,96,0.00,,,0.01,meteohub,2013-09-29 09:02:00,
2013-09-29 04:07:00,46.8,45.7,29.97,West,265,0.0,1.0,96,0.00,,,0.01,meteohub,2013-09-29 09:07:00,
2013-09-29 04:12:00,46.8,45.7,29.98,West,265,0.0,1.0,96,0.00,,,0.01,meteohub,2013-09-29 09:12:00,
2013-09-29 04:17:00,46.8,45.7,29.98,West,265,0.0,1.0,96,0.00,,,0.01,meteohub,2013-09-29 09:17:00,
2013-09-29 04:22:00,46.9,45.9,29.98,West,265,0.0,1.0,96,0.00,,,0.01,meteohub,2013-09-29 09:22:00,
2013-09-29 04:27:00,46.9,45.9,29.98,West,265,0.0,1.0,96,0.00,,,0.01,meteohub,2013-09-29 09:27:00,
2013-09-29 04:32:00,47.3,46.2,29.98,West,265,0.0,1.0,96,0.00,,,0.01,meteohub,2013-09-29 09:32:00,
2013-09-29 04:37:00,47.5,46.4,29.98,West,265,0.0,1.0,96,0.00,,,0.01,meteohub,2013-09-29 09:37:00,
2013-09-29 04:42:00,47.3,46.2,29.98,West,265,0.0,1.0,96,0.00,,,0.01,meteohub,2013-09-29 09:42:00,
2013-09-29 04:47:00,46.9,45.9,29.98,West,265,0.0,1.0,96,0.00,,,0.01,meteohub,2013-09-29 09:47:00,
2013-09-29 04:52:00,46.6,45.5,29.98,West,265,0.0,0.0,96,0.00,,,0.01,meteohub,2013-09-29 09:52:00,
2013-09-29 04:57:00,46.4,45.3,29.98,West,265,0.0,0.0,96,0.00,,,0.01,meteohub,2013-09-29 09:57:00,
2013-09-29 05:02:00,46.2,45.1,29.98,West,265,0.0,0.0,96,0.00,,,0.01,meteohub,2013-09-29 10:02:00,
2013-09-29 05:07:00,46.0,45.0,29.99,West,265,0.0,0.0,96,0.00,,,0.01,meteohub,2013-09-29 10:07:00,
2013-09-29 05:12:00,45.9,44.8,29.99,West,265,0.0,0.0,96,0.00,,,0.01,meteohub,2013-09-29 10:12:00,
2013-09-29 05:17:00,45.7,44.6,29.99,West,265,0.0,0.0,96,0.00,,,0.01,meteohub,2013-09-29 10:17:00,
2013-09-29 05:22:00,45.5,44.4,29.99,West,265,0.0,0.0,96,0.00,,,0.01,meteohub,2013-09-29 10:22:00,
2013-09-29 05:27:00,45.3,44.2,29.99,West,265,0.0,0.0,96,0.00,,,0.01,meteohub,2013-09-29 10:27:00,
2013-09-29 05:32:00,45.3,44.2,29.99,West,265,0.0,0.0,96,0.00,,,0.01,meteohub,2013-09-29 10:32:00,
2013-09-29 05:37:00,45.7,45.7,29.99,West,265,0.0,1.0,100,0.00,,,0.01,meteohub,2013-09-29 10:37:00,
2013-09-29 05:42:00,45.7,44.6,29.99,West,265,0.0,1.0,96,0.00,,,0.01,meteohub,2013-09-29 10:42:00,
2013-09-29 05:47:00,45.9,44.8,30.00,West,265,0.0,2.0,96,0.00,,,0.01,meteohub,2013-09-29 10:47:00,
2013-09-29 05:52:00,46.0,45.0,30.00,West,265,0.0,2.0,96,0.00,,,0.01,meteohub,2013-09-29 10:52:00,
2013-09-29 05:57:00,46.0,45.0,30.00,West,265,0.0,2.0,96,0.00,,,0.01,meteohub,2013-09-29 10:57:00,
2013-09-29 06:02:00,45.9,44.8,30.00,West,265,0.0,1.0,96,0.00,,,0.01,meteohub,2013-09-29 11:02:00,
2013-09-29 06:07:00,45.5,44.4,30.00,West,265,0.0,0.0,96,0.00,,,0.01,meteohub,2013-09-29 11:07:00,
2013-09-29 06:12:00,45.1,44.1,30.00,West,265,0.0,0.0,96,0.00,,,0.01,meteohub,2013-09-29 11:12:00,
2013-09-29 06:17:00,45.0,43.9,30.01,West,265,0.0,0.0,96,0.00,,,0.01,meteohub,2013-09-29 11:17:00,
2013-09-29 06:22:00,44.8,43.7,30.01,West,265,0.0,0.0,96,0.00,,,0.01,meteohub,2013-09-29 11:22:00,
2013-09-29 06:27:00,44.4,43.3,30.01,West,265,0.0,0.0,96,0.00,,,0.01,meteohub,2013-09-29 11:27:00,
2013-09-29 06:32:00,44.1,43.0,30.01,West,265,0.0,0.0,96,0.00,,,0.01,meteohub,2013-09-29 11:32:00,
2013-09-29 06:37:00,44.1,43.0,30.02,West,265,0.0,0.0,96,0.00,,,0.01,meteohub,2013-09-29 11:37:00,
2013-09-29 06:42:00,43.9,42.8,30.02,West,265,0.0,1.0,96,0.00,,,0.01,meteohub,2013-09-29 11:42:00,
2013-09-29 06:48:00,43.5,42.4,30.02,West,265,0.0,1.0,96,0.00,,,0.01,meteohub,2013-09-29 11:48:00,
2013-09-29 06:53:00,43.3,42.3,30.03,West,265,0.0,1.0,96,0.00,,,0.01,meteohub,2013-09-29 11:53:00,
2013-09-29 06:58:00,43.3,42.3,30.03,West,265,0.0,0.0,96,0.00,,,0.01,meteohub,2013-09-29 11:58:00,
2013-09-29 07:03:00,43.2,42.1,30.02,West,265,0.0,0.0,96,0.00,,,0.01,meteohub,2013-09-29 12:03:00,
2013-09-29 07:08:00,43.3,42.3,30.02,West,265,0.0,0.0,96,0.00,,,0.01,meteohub,2013-09-29 12:08:00,
2013-09-29 07:13:00,43.3,42.3,30.02,West,265,0.0,0.0,96,0.00,,,0.01,meteohub,2013-09-29 12:13:00,
2013-09-29 07:18:00,43.9,42.8,30.03,West,265,0.0,0.0,96,0.00,,,0.01,meteohub,2013-09-29 12:18:00,
2013-09-29 07:23:00,44.2,43.5,30.03,West,265,0.0,0.0,97,0.00,,,0.01,meteohub,2013-09-29 12:23:00,
2013-09-29 07:29:00,45.1,44.4,30.03,West,265,0.0,0.0,97,0.00,,,0.01,meteohub,2013-09-29 12:29:00,
2013-09-29 07:34:00,46.2,45.5,30.03,West,265,0.0,0.0,97,0.00,,,0.01,meteohub,2013-09-29 12:34:00,
2013-09-29 07:39:00,46.9,46.2,30.03,West,265,0.0,0.0,97,0.00,,,0.01,meteohub,2013-09-29 12:39:00,
2013-09-29 07:44:00,47.3,46.6,30.03,West,265,0.0,0.0,97,0.00,,,0.01,meteohub,2013-09-29 12:44:00,
2013-09-29 07:49:00,47.7,46.9,30.04,West,265,0.0,0.0,97,0.00,,,0.01,meteohub,2013-09-29 12:49:00,
2013-09-29 07:55:00,48.0,47.1,30.03,West,265,0.0,0.0,97,0.00,,,0.01,meteohub,2013-09-29 12:55:00,
2013-09-29 08:00:00,48.6,47.7,30.04,West,265,1.0,0.0,97,0.00,,,0.01,meteohub,2013-09-29 13:00:00,
2013-09-29 08:05:00,48.6,47.7,30.04,West,265,0.0,1.0,97,0.00,,,0.01,meteohub,2013-09-29 13:05:00,
2013-09-29 08:10:00,48.7,47.8,30.04,West,265,0.0,1.0,97,0.00,,,0.01,meteohub,2013-09-29 13:10:00,
2013-09-29 08:15:00,48.9,48.0,30.04,West,265,0.0,1.0,97,0.00,,,0.01,meteohub,2013-09-29 13:15:00,
2013-09-29 08:20:00,49.5,48.6,30.04,West,268,0.0,1.0,97,0.00,,,0.01,meteohub,2013-09-29 13:20:00,
2013-09-29 08:26:00,50.4,49.5,30.04,West,268,0.0,1.0,97,0.00,,,0.01,meteohub,2013-09-29 13:26:00,
2013-09-29 08:31:00,50.7,49.8,30.04,West,268,0.0,2.0,97,0.00,,,0.01,meteohub,2013-09-29 13:31:00,
2013-09-29 08:37:00,51.1,50.2,30.04,West,268,0.0,2.0,97,0.00,,,0.01,meteohub,2013-09-29 13:37:00,
2013-09-29 08:42:00,50.7,49.8,30.04,West,268,0.0,3.0,97,0.00,,,0.01,meteohub,2013-09-29 13:42:00,
2013-09-29 08:47:00,51.3,50.4,30.04,West,268,0.0,3.0,97,0.00,,,0.01,meteohub,2013-09-29 13:47:00,
2013-09-29 08:52:00,52.2,51.3,30.04,West,268,0.0,3.0,97,0.00,,,0.01,meteohub,2013-09-29 13:52:00,
2013-09-29 08:57:00,52.9,52.0,30.04,West,268,0.0,1.0,97,0.00,,,0.01,meteohub,2013-09-29 13:57:00,
2013-09-29 09:02:00,52.7,51.8,30.04,West,266,0.0,0.0,97,0.00,,,0.01,meteohub,2013-09-29 14:02:00,
2013-09-29 09:07:00,53.4,52.5,30.04,West,266,0.0,0.0,97,0.00,,,0.01,meteohub,2013-09-29 14:07:00,
2013-09-29 09:12:00,53.4,52.5,30.05,West,266,0.0,0.0,97,0.00,,,0.01,meteohub,2013-09-29 14:12:00,
2013-09-29 09:17:00,53.2,52.3,30.05,West,266,0.0,1.0,97,0.00,,,0.01,meteohub,2013-09-29 14:17:00,
2013-09-29 09:22:00,54.0,53.1,30.05,West,266,0.0,1.0,97,0.00,,,0.01,meteohub,2013-09-29 14:22:00,
2013-09-29 09:28:00,54.3,53.4,30.05,West,266,0.0,1.0,97,0.00,,,0.01,meteohub,2013-09-29 14:28:00,
2013-09-29 09:33:00,55.2,54.1,30.05,West,266,0.0,0.0,96,0.00,,,0.01,meteohub,2013-09-29 14:33:00,
2013-09-29 09:38:00,55.6,54.1,30.05,West,266,0.0,1.0,95,0.00,,,0.01,meteohub,2013-09-29 14:38:00,
2013-09-29 09:43:00,56.7,55.0,30.05,West,266,0.0,1.0,94,0.00,,,0.01,meteohub,2013-09-29 14:43:00,
2013-09-29 09:48:00,57.4,54.9,30.05,West,266,0.0,1.0,91,0.00,,,0.01,meteohub,2013-09-29 14:48:00,
2013-09-29 09:53:00,57.9,53.8,30.06,West,266,0.0,1.0,86,0.00,,,0.01,meteohub,2013-09-29 14:53:00,
2013-09-29 09:59:00,58.5,53.6,30.05,West,266,0.0,1.0,84,0.00,,,0.01,meteohub,2013-09-29 14:59:00,
2013-09-29 10:04:00,59.4,53.6,30.05,West,266,0.0,1.0,81,0.00,,,0.01,meteohub,2013-09-29 15:04:00,
2013-09-29 10:09:00,60.1,53.2,30.05,West,266,0.0,1.0,78,0.00,,,0.01,meteohub,2013-09-29 15:09:00,
2013-09-29 10:14:00,61.2,53.2,30.06,West,266,0.0,1.0,75,0.00,,,0.01,meteohub,2013-09-29 15:14:00,
2013-09-29 10:19:00,61.7,53.8,30.05,West,266,1.0,1.0,75,0.00,,,0.01,meteohub,2013-09-29 15:19:00,
2013-09-29 10:25:00,62.1,52.9,30.05,West,266,1.0,1.0,72,0.00,,,0.01,meteohub,2013-09-29 15:25:00,
2013-09-29 10:30:00,62.1,51.4,30.05,West,266,0.0,2.0,68,0.00,,,0.01,meteohub,2013-09-29 15:30:00,
2013-09-29 10:35:00,61.5,49.3,30.06,West,266,0.0,3.0,64,0.00,,,0.01,meteohub,2013-09-29 15:35:00,
2013-09-29 10:40:00,61.5,50.5,30.06,West,266,0.0,3.0,67,0.00,,,0.01,meteohub,2013-09-29 15:40:00,
2013-09-29 10:45:00,61.7,49.5,30.06,West,266,0.0,3.0,64,0.00,,,0.01,meteohub,2013-09-29 15:45:00,
2013-09-29 10:51:00,62.4,50.5,30.06,West,266,0.0,2.0,65,0.00,,,0.01,meteohub,2013-09-29 15:51:00,
2013-09-29 10:56:00,63.3,49.3,30.06,West,266,0.0,2.0,60,0.00,,,0.01,meteohub,2013-09-29 15:56:00,
2013-09-29 11:01:00,64.0,49.8,30.06,West,266,0.0,1.0,60,0.00,,,0.01,meteohub,2013-09-29 16:01:00,
2013-09-29 11:06:00,64.8,49.1,30.06,West,266,0.0,1.0,57,0.00,,,0.01,meteohub,2013-09-29 16:06:00,
2013-09-29 11:12:00,65.3,50.2,30.06,WSW,238,0.0,1.0,58,0.00,,,0.01,meteohub,2013-09-29 16:12:00,
2013-09-29 11:17:00,65.7,49.5,30.06,WSW,238,0.0,4.0,56,0.00,,,0.01,meteohub,2013-09-29 16:17:00,
2013-09-29 11:22:00,65.8,50.2,30.06,SW,236,1.0,4.0,57,0.00,,,0.01,meteohub,2013-09-29 16:22:00,
2013-09-29 11:27:00,65.5,48.9,30.06,SW,236,3.0,4.0,55,0.00,,,0.01,meteohub,2013-09-29 16:27:00,
2013-09-29 11:32:00,65.8,51.1,30.05,SW,236,0.0,4.0,59,0.00,,,0.01,meteohub,2013-09-29 16:32:00,
2013-09-29 11:37:00,65.7,49.1,30.06,SW,236,1.0,4.0,55,0.00,,,0.01,meteohub,2013-09-29 16:37:00,
2013-09-29 11:42:00,65.3,48.7,30.05,SW,235,0.0,4.0,55,0.00,,,0.01,meteohub,2013-09-29 16:42:00,
2013-09-29 11:47:00,65.3,48.2,30.05,SW,236,0.0,4.0,54,0.00,,,0.01,meteohub,2013-09-29 16:47:00,
2013-09-29 11:52:00,64.9,49.3,30.05,WSW,244,0.0,4.0,57,0.00,,,0.01,meteohub,2013-09-29 16:52:00,
2013-09-29 11:57:00,64.9,48.4,30.05,WSW,238,0.0,5.0,55,0.00,,,0.01,meteohub,2013-09-29 16:57:00,
2013-09-29 12:02:00,64.9,46.9,30.05,WSW,245,1.0,6.0,52,0.00,,,0.01,meteohub,2013-09-29 17:02:00,
2013-09-29 12:07:00,65.3,48.7,30.05,WSW,243,2.0,6.0,55,0.00,,,0.01,meteohub,2013-09-29 17:07:00,
2013-09-29 12:12:00,65.5,47.5,30.05,WSW,244,0.0,6.0,52,0.00,,,0.01,meteohub,2013-09-29 17:12:00,
2013-09-29 12:17:00,65.7,49.1,30.05,WSW,244,0.0,6.0,55,0.00,,,0.01,meteohub,2013-09-29 17:17:00,
2013-09-29 12:22:00,65.8,48.7,30.05,WSW,245,0.0,6.0,54,0.00,,,0.01,meteohub,2013-09-29 17:22:00,
2013-09-29 12:27:00,66.0,49.8,30.05,SW,227,0.0,6.0,56,0.00,,,0.01,meteohub,2013-09-29 17:27:00,
2013-09-29 12:32:00,66.0,48.4,30.05,SW,220,3.0,6.0,53,0.00,,,0.01,meteohub,2013-09-29 17:32:00,
2013-09-29 12:37:00,66.6,49.8,30.04,SW,220,0.0,6.0,55,0.00,,,0.01,meteohub,2013-09-29 17:37:00,
2013-09-29 12:42:00,66.7,49.1,30.04,SW,221,0.0,5.0,53,0.00,,,0.01,meteohub,2013-09-29 17:42:00,
2013-09-29 12:47:00,66.7,46.9,30.04,SW,221,0.0,4.0,49,0.00,,,0.01,meteohub,2013-09-29 17:47:00,
2013-09-29 12:52:00,67.3,50.0,30.04,SW,221,3.0,4.0,54,0.00,,,0.01,meteohub,2013-09-29 17:52:00,
2013-09-29 12:57:00,67.3,48.6,30.04,SW,219,2.0,5.0,51,0.00,,,0.01,meteohub,2013-09-29 17:57:00,
2013-09-29 13:02:00,67.5,48.7,30.04,SW,219,2.0,6.0,51,0.00,,,0.01,meteohub,2013-09-29 18:02:00,
2013-09-29 13:07:00,67.8,48.6,30.04,SW,217,0.0,6.0,50,0.00,,,0.01,meteohub,2013-09-29 18:07:00,
2013-09-29 13:12:00,68.2,48.9,30.03,SW,217,4.0,6.0,50,0.00,,,0.01,meteohub,2013-09-29 18:12:00,
2013-09-29 13:17:00,68.4,47.3,30.03,SW,217,0.0,5.0,47,0.00,,,0.01,meteohub,2013-09-29 18:17:00,
2013-09-29 13:22:00,68.2,47.1,30.03,SW,223,3.0,5.0,47,0.00,,,0.01,meteohub,2013-09-29 18:22:00,
2013-09-29 13:28:00,67.3,44.6,30.03,SW,227,0.0,6.0,44,0.00,,,0.01,meteohub,2013-09-29 18:28:00,
2013-09-29 13:34:00,67.3,48.0,30.03,SW,227,0.0,6.0,50,0.00,,,0.01,meteohub,2013-09-29 18:34:00,
2013-09-29 13:39:00,67.8,47.5,30.03,SW,227,0.0,5.0,48,0.00,,,0.01,meteohub,2013-09-29 18:39:00,
2013-09-29 13:44:00,68.5,47.5,30.03,SW,227,0.0,4.0,47,0.00,,,0.01,meteohub,2013-09-29 18:44:00,
2013-09-29 13:49:00,69.1,48.0,30.02,SW,223,0.0,2.0,47,0.00,,,0.01,meteohub,2013-09-29 18:49:00,
2013-09-29 13:54:00,69.4,47.8,30.02,SW,223,0.0,5.0,46,0.00,,,0.01,meteohub,2013-09-29 18:54:00,
2013-09-29 13:59:00,69.6,47.3,30.02,SW,223,0.0,5.0,45,0.00,,,0.01,meteohub,2013-09-29 18:59:00,
2013-09-29 14:05:00,69.6,47.8,30.01,SW,223,0.0,3.0,46,0.00,,,0.01,meteohub,2013-09-29 19:05:00,
2013-09-29 14:10:00,70.0,48.2,30.01,SW,223,0.0,2.0,46,0.00,,,0.01,meteohub,2013-09-29 19:10:00,
2013-09-29 14:15:00,70.2,47.3,30.01,SW,223,0.0,3.0,44,0.00,,,0.01,meteohub,2013-09-29 19:15:00,
2013-09-29 14:20:00,70.2,45.3,30.01,SW,223,0.0,3.0,41,0.00,,,0.01,meteohub,2013-09-29 19:20:00,
2013-09-29 14:25:00,70.3,46.8,30.01,SW,223,5.0,5.0,43,0.00,,,0.01,meteohub,2013-09-29 19:25:00,
2013-09-29 14:30:00,70.3,46.8,30.01,SW,219,5.0,5.0,43,0.00,,,0.01,meteohub,2013-09-29 19:30:00,
2013-09-29 14:35:00,70.3,48.6,30.01,SSW,213,2.0,8.0,46,0.00,,,0.01,meteohub,2013-09-29 19:35:00,
2013-09-29 14:41:00,70.3,47.5,30.00,SSW,213,0.0,8.0,44,0.00,,,0.01,meteohub,2013-09-29 19:41:00,
2013-09-29 14:46:00,69.6,47.8,30.00,SSW,208,0.0,8.0,46,0.00,,,0.01,meteohub,2013-09-29 19:46:00,
2013-09-29 14:50:00,70.0,48.7,30.00,SSW,208,0.0,8.0,47,0.00,,,0.01,meteohub,2013-09-29 19:50:00,
2013-09-29 14:55:00,70.2,48.4,30.00,SSW,208,0.0,5.0,46,0.00,,,0.01,meteohub,2013-09-29 19:55:00,
2013-09-29 15:00:00,70.9,47.3,30.00,SSW,208,0.0,3.0,43,0.00,,,0.01,meteohub,2013-09-29 20:00:00,
2013-09-29 15:06:00,71.2,46.4,30.00,SSW,210,1.0,3.0,41,0.00,,,0.01,meteohub,2013-09-29 20:06:00,
2013-09-29 15:11:00,71.1,45.5,29.99,SSW,209,0.0,6.0,40,0.00,,,0.01,meteohub,2013-09-29 20:11:00,
2013-09-29 15:16:00,71.4,48.4,29.99,SSW,207,0.0,6.0,44,0.00,,,0.01,meteohub,2013-09-29 20:16:00,
2013-09-29 15:21:00,71.2,48.2,29.99,SSW,207,0.0,7.0,44,0.00,,,0.01,meteohub,2013-09-29 20:21:00,
2013-09-29 15:26:00,71.2,47.7,29.99,SSW,207,0.0,7.0,43,0.00,,,0.01,meteohub,2013-09-29 20:26:00,
2013-09-29 15:31:00,70.9,47.3,29.99,SSW,207,2.0,7.0,43,0.00,,,0.01,meteohub,2013-09-29 20:31:00,
2013-09-29 15:37:00,70.3,46.8,29.99,SSW,207,0.0,6.0,43,0.00,,,0.01,meteohub,2013-09-29 20:37:00,
2013-09-29 15:42:00,69.8,47.5,29.99,South,191,0.0,6.0,45,0.00,,,0.01,meteohub,2013-09-29 20:42:00,
2013-09-29 15:47:00,69.6,46.8,29.99,South,191,1.0,5.0,44,0.00,,,0.01,meteohub,2013-09-29 20:47:00,
2013-09-29 15:52:00,70.0,48.2,29.99,South,191,0.0,5.0,46,0.00,,,0.01,meteohub,2013-09-29 20:52:00,
2013-09-29 15:57:00,70.2,49.6,29.99,South,191,0.0,4.0,48,0.00,,,0.01,meteohub,2013-09-29 20:57:00,
2013-09-29 16:02:00,70.3,46.8,29.99,South,191,1.0,4.0,43,0.00,,,0.01,meteohub,2013-09-29 21:02:00,
2013-09-29 16:07:00,70.3,48.6,29.99,South,191,1.0,4.0,46,0.00,,,0.01,meteohub,2013-09-29 21:07:00,
2013-09-29 16:12:00,70.3,47.5,29.99,South,191,0.0,5.0,44,0.00,,,0.01,meteohub,2013-09-29 21:12:00,
2013-09-29 16:17:00,70.5,48.2,29.99,South,191,0.0,5.0,45,0.00,,,0.01,meteohub,2013-09-29 21:17:00,
2013-09-29 16:22:00,70.9,48.6,29.98,South,191,1.0,5.0,45,0.00,,,0.01,meteohub,2013-09-29 21:22:00,
2013-09-29 16:27:00,70.9,48.6,29.98,SSW,192,2.0,5.0,45,0.00,,,0.01,meteohub,2013-09-29 21:27:00,
2013-09-29 16:32:00,71.1,48.0,29.98,SSW,192,0.0,5.0,44,0.00,,,0.01,meteohub,2013-09-29 21:32:00,
2013-09-29 16:37:00,70.9,47.3,29.98,SSW,192,0.0,5.0,43,0.00,,,0.01,meteohub,2013-09-29 21:37:00,
2013-09-29 16:42:00,70.9,47.3,29.98,SSW,192,2.0,6.0,43,0.00,,,0.01,meteohub,2013-09-29 21:42:00,
2013-09-29 16:47:00,70.5,46.9,29.98,South,191,0.0,6.0,43,0.00,,,0.01,meteohub,2013-09-29 21:47:00,
2013-09-29 16:53:00,70.5,48.2,29.98,South,191,0.0,5.0,45,0.00,,,0.01,meteohub,2013-09-29 21:53:00,
2013-09-29 16:58:00,70.7,48.9,29.98,South,191,0.0,5.0,46,0.00,,,0.01,meteohub,2013-09-29 21:58:00,
2013-09-29 17:03:00,70.7,47.7,29.98,SSW,192,1.0,3.0,44,0.00,,,0.01,meteohub,2013-09-29 22:03:00,
2013-09-29 17:08:00,70.5,48.2,29.98,South,191,0.0,3.0,45,0.00,,,0.01,meteohub,2013-09-29 22:08:00,
2013-09-29 17:13:00,70.2,48.9,29.98,South,191,0.0,4.0,47,0.00,,,0.01,meteohub,2013-09-29 22:13:00,
2013-09-29 17:18:00,70.0,48.2,29.98,South,191,0.0,5.0,46,0.00,,,0.01,meteohub,2013-09-29 22:18:00,
2013-09-29 17:23:00,69.6,48.6,29.98,South,191,2.0,6.0,47,0.00,,,0.01,meteohub,2013-09-29 22:23:00,
2013-09-29 17:29:00,69.4,49.5,29.98,South,191,0.0,6.0,49,0.00,,,0.01,meteohub,2013-09-29 22:29:00,
2013-09-29 17:34:00,69.3,49.3,29.98,South,191,0.0,6.0,49,0.00,,,0.01,meteohub,2013-09-29 22:34:00,
2013-09-29 17:39:00,69.3,48.7,29.98,South,191,0.0,4.0,48,0.00,,,0.01,meteohub,2013-09-29 22:39:00,
2013-09-29 17:44:00,68.7,48.2,29.98,South,191,0.0,4.0,48,0.00,,,0.01,meteohub,2013-09-29 22:44:00,
2013-09-29 17:49:00,68.5,48.0,29.98,South,191,0.0,4.0,48,0.00,,,0.01,meteohub,2013-09-29 22:49:00,
2013-09-29 17:55:00,68.5,48.6,29.98,South,191,0.0,1.0,49,0.00,,,0.01,meteohub,2013-09-29 22:55:00,
2013-09-29 18:00:00,68.5,49.1,29.98,South,191,0.0,1.0,50,0.00,,,0.01,meteohub,2013-09-29 23:00:00,
2013-09-29 18:05:00,68.7,49.8,29.98,South,191,0.0,1.0,51,0.00,,,0.01,meteohub,2013-09-29 23:05:00,
2013-09-29 18:10:00,68.5,49.6,29.98,South,191,0.0,1.0,51,0.00,,,0.01,meteohub,2013-09-29 23:10:00,
2013-09-29 18:15:00,68.0,50.2,29.98,South,191,0.0,1.0,53,0.00,,,0.01,meteohub,2013-09-29 23:15:00,
2013-09-29 18:20:00,67.5,49.8,29.97,South,191,0.0,1.0,53,0.00,,,0.01,meteohub,2013-09-29 23:20:00,
2013-09-29 18:26:00,66.7,49.6,29.97,South,191,0.0,1.0,54,0.00,,,0.01,meteohub,2013-09-29 23:26:00,
2013-09-29 18:31:00,65.8,49.3,29.97,South,191,0.0,0.0,55,0.00,,,0.01,meteohub,2013-09-29 23:31:00,
2013-09-29 18:36:00,64.9,49.3,29.97,South,191,0.0,0.0,57,0.00,,,0.01,meteohub,2013-09-29 23:36:00,
2013-09-29 18:41:00,63.9,49.3,29.97,South,191,0.0,0.0,59,0.00,,,0.01,meteohub,2013-09-29 23:41:00,
2013-09-29 18:46:00,62.8,49.1,29.98,South,191,0.0,0.0,61,0.00,,,0.01,meteohub,2013-09-29 23:46:00,
2013-09-29 18:52:00,62.1,49.3,29.98,South,191,0.0,0.0,63,0.00,,,0.01,meteohub,2013-09-29 23:52:00,
2013-09-29 18:57:00,61.2,49.3,29.97,South,191,0.0,0.0,65,0.00,,,0.01,meteohub,2013-09-29 23:57:00,
2013-09-29 19:02:00,60.4,48.6,29.97,South,191,0.0,0.0,65,0.00,,,0.01,meteohub,2013-09-30 00:02:00,
2013-09-29 19:07:00,59.7,48.4,29.98,South,191,0.0,0.0,66,0.00,,,0.01,meteohub,2013-09-30 00:07:00,
2013-09-29 19:12:00,59.4,48.4,29.98,South,191,0.0,0.0,67,0.00,,,0.01,meteohub,2013-09-30 00:12:00,
2013-09-29 19:17:00,58.6,48.2,29.98,South,191,0.0,0.0,68,0.00,,,0.01,meteohub,2013-09-30 00:17:00,
2013-09-29 19:22:00,58.3,48.2,29.98,South,191,0.0,0.0,69,0.00,,,0.01,meteohub,2013-09-30 00:22:00,
2013-09-29 19:27:00,57.7,48.4,29.98,South,191,0.0,0.0,71,0.00,,,0.01,meteohub,2013-09-30 00:27:00,
2013-09-29 19:33:00,57.2,47.8,29.98,South,191,0.0,1.0,71,0.00,,,0.01,meteohub,2013-09-30 00:33:00,
2013-09-29 19:38:00,56.8,47.5,29.98,South,191,0.0,1.0,71,0.00,,,0.01,meteohub,2013-09-30 00:38:00,
2013-09-29 19:43:00,56.5,47.5,29.98,South,191,0.0,1.0,72,0.00,,,0.01,meteohub,2013-09-30 00:43:00,
2013-09-29 19:48:00,55.9,47.5,29.98,South,191,0.0,1.0,73,0.00,,,0.01,meteohub,2013-09-30 00:48:00,
2013-09-29 19:53:00,55.6,47.5,29.98,South,191,0.0,0.0,74,0.00,,,0.01,meteohub,2013-09-30 00:53:00,
2013-09-29 19:59:00,55.0,46.9,29.98,South,191,0.0,0.0,74,0.00,,,0.01,meteohub,2013-09-30 00:59:00,
2013-09-29 20:04:00,54.7,46.9,29.98,South,191,0.0,0.0,75,0.00,,,0.01,meteohub,2013-09-30 01:04:00,
2013-09-29 20:09:00,54.3,46.9,29.99,South,191,0.0,0.0,76,0.00,,,0.01,meteohub,2013-09-30 01:09:00,
2013-09-29 20:14:00,54.1,47.1,29.99,South,191,0.0,0.0,77,0.00,,,0.01,meteohub,2013-09-30 01:14:00,
2013-09-29 20:20:00,53.8,46.4,29.99,South,191,0.0,0.0,76,0.00,,,0.01,meteohub,2013-09-30 01:20:00,
2013-09-29 20:25:00,53.6,46.6,29.99,South,191,0.0,0.0,77,0.00,,,0.01,meteohub,2013-09-30 01:25:00,
2013-09-29 20:30:00,53.4,46.8,29.99,South,191,0.0,1.0,78,0.00,,,0.01,meteohub,2013-09-30 01:30:00,
2013-09-29 20:35:00,53.1,46.4,29.99,South,191,0.0,1.0,78,0.00,,,0.01,meteohub,2013-09-30 01:35:00,
2013-09-29 20:42:00,53.1,46.8,29.99,South,191,0.0,1.0,79,0.00,,,0.01,meteohub,2013-09-30 01:42:00,
2013-09-29 20:47:00,53.1,47.1,30.00,South,191,0.0,1.0,80,0.00,,,0.01,meteohub,2013-09-30 01:47:00,
2013-09-29 20:52:00,53.1,47.3,30.00,South,191,0.0,1.0,81,0.00,,,0.01,meteohub,2013-09-30 01:52:00,
2013-09-29 20:57:00,53.1,47.3,30.00,South,191,0.0,1.0,81,0.00,,,0.01,meteohub,2013-09-30 01:57:00,
2013-09-29 21:02:00,53.2,47.8,30.00,South,191,0.0,2.0,82,0.00,,,0.01,meteohub,2013-09-30 02:02:00,
2013-09-29 21:07:00,53.2,47.5,30.00,South,191,0.0,2.0,81,0.00,,,0.01,meteohub,2013-09-30 02:07:00,
2013-09-29 21:12:00,53.2,47.5,29.99,South,191,0.0,2.0,81,0.00,,,0.01,meteohub,2013-09-30 02:12:00,
2013-09-29 21:18:00,53.2,47.3,29.99,South,191,0.0,2.0,80,0.00,,,0.01,meteohub,2013-09-30 02:18:00,
2013-09-29 21:23:00,53.2,47.3,29.99,South,191,0.0,1.0,80,0.00,,,0.01,meteohub,2013-09-30 02:23:00,
2013-09-29 21:28:00,52.7,46.8,29.99,South,191,0.0,1.0,80,0.00,,,0.01,meteohub,2013-09-30 02:28:00,
2013-09-29 21:33:00,52.0,46.0,29.99,South,191,0.0,1.0,80,0.00,,,0.01,meteohub,2013-09-30 02:33:00,
2013-09-29 21:39:00,51.3,45.7,30.00,South,191,1.0,1.0,81,0.00,,,0.01,meteohub,2013-09-30 02:39:00,
2013-09-29 21:44:00,51.1,45.9,30.00,South,191,0.0,2.0,82,0.00,,,0.01,meteohub,2013-09-30 02:44:00,
2013-09-29 21:49:00,50.7,45.7,30.00,South,191,0.0,2.0,83,0.00,,,0.01,meteohub,2013-09-30 02:49:00,
2013-09-29 21:54:00,50.4,45.3,30.00,South,191,0.0,3.0,83,0.00,,,0.01,meteohub,2013-09-30 02:54:00,
2013-09-29 21:59:00,50.2,45.5,30.00,South,191,0.0,3.0,84,0.00,,,0.01,meteohub,2013-09-30 02:59:00,
2013-09-29 22:05:00,49.8,45.1,30.00,South,191,0.0,2.0,84,0.00,,,0.01,meteohub,2013-09-30 03:05:00,
2013-09-29 22:10:00,49.6,45.3,30.00,South,191,0.0,1.0,85,0.00,,,0.01,meteohub,2013-09-30 03:10:00,
2013-09-29 22:15:00,49.5,45.1,30.00,South,191,0.0,1.0,85,0.00,,,0.01,meteohub,2013-09-30 03:15:00,
2013-09-29 22:20:00,49.3,45.0,30.00,South,191,0.0,1.0,85,0.00,,,0.01,meteohub,2013-09-30 03:20:00,
2013-09-29 22:26:00,49.3,45.0,30.00,South,191,0.0,1.0,85,0.00,,,0.01,meteohub,2013-09-30 03:26:00,
2013-09-29 22:31:00,48.9,45.0,30.00,South,191,0.0,0.0,86,0.00,,,0.01,meteohub,2013-09-30 03:31:00,
2013-09-29 22:36:00,48.7,44.8,30.00,South,191,0.0,1.0,86,0.00,,,0.01,meteohub,2013-09-30 03:36:00,
2013-09-29 22:41:00,48.6,44.6,30.00,South,191,0.0,1.0,86,0.00,,,0.01,meteohub,2013-09-30 03:41:00,
2013-09-29 22:46:00,48.6,44.6,30.00,South,191,0.0,2.0,86,0.00,,,0.01,meteohub,2013-09-30 03:46:00,
2013-09-29 22:51:00,48.4,44.8,29.99,South,191,0.0,2.0,87,0.00,,,0.01,meteohub,2013-09-30 03:51:00,
2013-09-29 22:57:00,48.0,44.4,30.00,South,191,0.0,2.0,87,0.00,,,0.01,meteohub,2013-09-30 03:57:00,
2013-09-29 23:01:00,48.0,44.4,29.99,South,191,0.0,2.0,87,0.00,,,0.01,meteohub,2013-09-30 04:01:00,
2013-09-29 23:02:00,48.0,44.4,29.99,South,191,0.0,2.0,87,0.00,,,0.01,meteohub,2013-09-30 04:02:00,
2013-09-29 23:08:00,48.2,44.6,30.00,South,191,0.0,2.0,87,0.00,,,0.01,meteohub,2013-09-30 04:08:00,
2013-09-29 23:13:00,48.0,44.4,30.00,South,191,0.0,2.0,87,0.00,,,0.01,meteohub,2013-09-30 04:13:00,
2013-09-29 23:18:00,48.0,44.4,30.00,South,191,0.0,2.0,87,0.00,,,0.01,meteohub,2013-09-30 04:18:00,
2013-09-29 23:23:00,47.8,44.2,30.00,South,191,0.0,1.0,87,0.00,,,0.01,meteohub,2013-09-30 04:23:00,
2013-09-29 23:28:00,47.7,44.2,30.00,South,191,0.0,1.0,88,0.00,,,0.01,meteohub,2013-09-30 04:28:00,
2013-09-29 23:33:00,47.5,44.1,29.99,South,191,0.0,1.0,88,0.00,,,0.01,meteohub,2013-09-30 04:33:00,
2013-09-29 23:39:00,47.5,44.1,30.00,South,191,0.0,1.0,88,0.00,,,0.01,meteohub,2013-09-30 04:39:00,
2013-09-29 23:44:00,47.5,44.1,30.00,South,191,0.0,1.0,88,0.00,,,0.01,meteohub,2013-09-30 04:44:00,
2013-09-29 23:49:00,47.3,43.9,30.00,South,191,0.0,1.0,88,0.00,,,0.01,meteohub,2013-09-30 04:49:00,
2013-09-29 23:54:00,47.3,44.2,30.00,South,191,0.0,1.0,89,0.00,,,0.01,meteohub,2013-09-30 04:54:00,
2013-09-29 23:59:00,47.1,44.1,30.00,South,191,0.0,1.0,89,0.00,,,0.01,meteohub,2013-09-30 04:59:00,